sensor_id;sensor_type;location;lat;lon;timestamp;temperature;humidity
7576;DHT22;3829;50.798;4.358;2022-08-01T00:00:41;20.90;99.90
7576;DHT22;3829;50.798;4.358;2022-08-01T00:03:07;20.90;99.90
7576;DHT22;3829;50.798;4.358;2022-08-01T00:05:32;20.70;99.90
7576;DHT22;3829;50.798;4.358;2022-08-01T00:07:58;20.80;99.90
7576;DHT22;3829;50.798;4.358;2022-08-01T00:10:24;20.80;99.90
7576;DHT22;3829;50.798;4.358;2022-08-01T00:12:50;20.90;99.90
7576;DHT22;3829;50.798;4.358;2022-08-01T00:15:16;20.90;99.90
7576;DHT22;3829;50.798;4.358;2022-08-01T00:17:42;21.00;99.90
7576;DHT22;3829;50.798;4.358;2022-08-01T00:20:12;21.00;99.90
7576;DHT22;3829;50.798;4.358;2022-08-01T00:22:38;21.00;99.90
7576;DHT22;3829;50.798;4.358;2022-08-01T00:25:04;21.00;99.90
7576;DHT22;3829;50.798;4.358;2022-08-01T00:27:31;21.00;99.90
7576;DHT22;3829;50.798;4.358;2022-08-01T00:29:57;21.00;99.90
7576;DHT22;3829;50.798;4.358;2022-08-01T00:32:23;21.00;99.90
7576;DHT22;3829;50.798;4.358;2022-08-01T00:34:48;21.10;99.90
7576;DHT22;3829;50.798;4.358;2022-08-01T00:37:14;21.10;99.90
7576;DHT22;3829;50.798;4.358;2022-08-01T00:39:39;21.10;99.90
7576;DHT22;3829;50.798;4.358;2022-08-01T00:42:10;21.10;99.90
7576;DHT22;3829;50.798;4.358;2022-08-01T00:44:36;21.10;99.90
7576;DHT22;3829;50.798;4.358;2022-08-01T00:47:03;21.10;99.90
7576;DHT22;3829;50.798;4.358;2022-08-01T00:49:29;21.10;99.90
7576;DHT22;3829;50.798;4.358;2022-08-01T00:51:57;21.10;99.90
7576;DHT22;3829;50.798;4.358;2022-08-01T00:54:25;21.00;99.90
7576;DHT22;3829;50.798;4.358;2022-08-01T00:56:51;21.00;99.90
7576;DHT22;3829;50.798;4.358;2022-08-01T00:59:22;21.00;99.90
7576;DHT22;3829;50.798;4.358;2022-08-01T01:01:48;20.90;99.90
7576;DHT22;3829;50.798;4.358;2022-08-01T01:04:14;20.90;99.90
7576;DHT22;3829;50.798;4.358;2022-08-01T01:10:00;20.90;99.90
7576;DHT22;3829;50.798;4.358;2022-08-01T01:12:43;21.00;99.90
7576;DHT22;3829;50.798;4.358;2022-08-01T01:15:44;21.00;99.90
7576;DHT22;3829;50.798;4.358;2022-08-01T01:18:17;21.10;99.90
7576;DHT22;3829;50.798;4.358;2022-08-01T01:20:47;20.90;99.90
7576;DHT22;3829;50.798;4.358;2022-08-01T01:29:08;20.90;99.90
7576;DHT22;3829;50.798;4.358;2022-08-01T01:31:51;20.80;99.90
7576;DHT22;3829;50.798;4.358;2022-08-01T01:34:19;20.80;99.90
7576;DHT22;3829;50.798;4.358;2022-08-01T01:36:48;20.80;99.90
7576;DHT22;3829;50.798;4.358;2022-08-01T01:39:15;20.60;99.90
7576;DHT22;3829;50.798;4.358;2022-08-01T01:41:43;20.50;99.90
7576;DHT22;3829;50.798;4.358;2022-08-01T01:44:10;20.40;99.90
7576;DHT22;3829;50.798;4.358;2022-08-01T01:46:36;20.30;99.90
7576;DHT22;3829;50.798;4.358;2022-08-01T01:49:03;20.30;99.90
7576;DHT22;3829;50.798;4.358;2022-08-01T01:51:30;20.30;99.90
7576;DHT22;3829;50.798;4.358;2022-08-01T01:53:57;20.20;99.90
7576;DHT22;3829;50.798;4.358;2022-08-01T01:56:25;20.10;99.90
7576;DHT22;3829;50.798;4.358;2022-08-01T01:58:57;20.10;99.90
7576;DHT22;3829;50.798;4.358;2022-08-01T02:01:25;20.00;99.90
7576;DHT22;3829;50.798;4.358;2022-08-01T02:03:52;19.90;99.90
7576;DHT22;3829;50.798;4.358;2022-08-01T02:06:19;20.00;99.90
7576;DHT22;3829;50.798;4.358;2022-08-01T02:08:46;20.00;99.90
7576;DHT22;3829;50.798;4.358;2022-08-01T02:11:12;20.00;99.90
7576;DHT22;3829;50.798;4.358;2022-08-01T02:13:48;20.10;99.90
7576;DHT22;3829;50.798;4.358;2022-08-01T02:16:15;20.10;99.90
7576;DHT22;3829;50.798;4.358;2022-08-01T02:18:42;20.00;99.90
7576;DHT22;3829;50.798;4.358;2022-08-01T02:21:12;20.10;99.90
7576;DHT22;3829;50.798;4.358;2022-08-01T02:23:40;20.00;99.90
7576;DHT22;3829;50.798;4.358;2022-08-01T02:26:10;20.10;99.90
7576;DHT22;3829;50.798;4.358;2022-08-01T02:28:59;20.10;99.90
7576;DHT22;3829;50.798;4.358;2022-08-01T02:31:26;20.10;99.90
7576;DHT22;3829;50.798;4.358;2022-08-01T02:33:59;20.20;99.90
7576;DHT22;3829;50.798;4.358;2022-08-01T02:36:28;20.30;99.90
7576;DHT22;3829;50.798;4.358;2022-08-01T02:38:57;20.40;99.90
7576;DHT22;3829;50.798;4.358;2022-08-01T02:41:26;20.40;99.90
7576;DHT22;3829;50.798;4.358;2022-08-01T02:43:55;20.40;99.90
7576;DHT22;3829;50.798;4.358;2022-08-01T02:46:56;20.30;99.90
7576;DHT22;3829;50.798;4.358;2022-08-01T02:49:24;20.20;99.90
7576;DHT22;3829;50.798;4.358;2022-08-01T02:51:52;20.30;99.90
7576;DHT22;3829;50.798;4.358;2022-08-01T02:54:21;20.30;99.90
7576;DHT22;3829;50.798;4.358;2022-08-01T02:56:48;20.30;99.90
7576;DHT22;3829;50.798;4.358;2022-08-01T02:59:17;20.40;99.90
7576;DHT22;3829;50.798;4.358;2022-08-01T03:01:45;20.40;99.90
7576;DHT22;3829;50.798;4.358;2022-08-01T03:04:12;20.50;99.90
7576;DHT22;3829;50.798;4.358;2022-08-01T03:06:39;20.30;99.90
7576;DHT22;3829;50.798;4.358;2022-08-01T03:09:06;20.20;99.90
7576;DHT22;3829;50.798;4.358;2022-08-01T03:11:32;20.30;99.90
7576;DHT22;3829;50.798;4.358;2022-08-01T03:14:02;20.40;99.90
7576;DHT22;3829;50.798;4.358;2022-08-01T03:16:30;20.40;99.90
7576;DHT22;3829;50.798;4.358;2022-08-01T03:18:58;20.50;99.90
7576;DHT22;3829;50.798;4.358;2022-08-01T03:21:26;20.50;99.90
7576;DHT22;3829;50.798;4.358;2022-08-01T03:23:53;20.40;99.90
7576;DHT22;3829;50.798;4.358;2022-08-01T03:26:27;20.40;99.90
7576;DHT22;3829;50.798;4.358;2022-08-01T03:28:57;20.40;99.90
7576;DHT22;3829;50.798;4.358;2022-08-01T03:31:25;20.40;99.90
7576;DHT22;3829;50.798;4.358;2022-08-01T03:33:51;20.30;99.90
7576;DHT22;3829;50.798;4.358;2022-08-01T03:36:21;20.20;99.90
7576;DHT22;3829;50.798;4.358;2022-08-01T03:38:50;20.10;99.90
7576;DHT22;3829;50.798;4.358;2022-08-01T03:41:20;20.20;99.90
7576;DHT22;3829;50.798;4.358;2022-08-01T03:43:55;20.00;99.90
7576;DHT22;3829;50.798;4.358;2022-08-01T03:46:32;19.80;99.90
7576;DHT22;3829;50.798;4.358;2022-08-01T03:49:03;19.70;99.90
7576;DHT22;3829;50.798;4.358;2022-08-01T03:51:31;19.70;99.90
7576;DHT22;3829;50.798;4.358;2022-08-01T03:54:00;19.70;99.90
7576;DHT22;3829;50.798;4.358;2022-08-01T03:56:27;19.60;99.90
7576;DHT22;3829;50.798;4.358;2022-08-01T03:58:56;19.70;99.90
7576;DHT22;3829;50.798;4.358;2022-08-01T04:01:22;19.80;99.90
7576;DHT22;3829;50.798;4.358;2022-08-01T04:03:48;19.60;99.90
7576;DHT22;3829;50.798;4.358;2022-08-01T04:06:15;19.40;99.90
7576;DHT22;3829;50.798;4.358;2022-08-01T04:08:41;19.40;99.90
7576;DHT22;3829;50.798;4.358;2022-08-01T04:11:08;19.40;99.90
7576;DHT22;3829;50.798;4.358;2022-08-01T04:13:34;19.40;99.90
7576;DHT22;3829;50.798;4.358;2022-08-01T04:15:59;19.40;99.90
7576;DHT22;3829;50.798;4.358;2022-08-01T04:18:25;19.40;99.90
7576;DHT22;3829;50.798;4.358;2022-08-01T04:20:51;19.40;99.90
7576;DHT22;3829;50.798;4.358;2022-08-01T04:23:20;19.40;99.90
7576;DHT22;3829;50.798;4.358;2022-08-01T04:25:48;19.40;99.90
7576;DHT22;3829;50.798;4.358;2022-08-01T04:28:15;19.60;99.90
7576;DHT22;3829;50.798;4.358;2022-08-01T04:30:44;19.60;99.90
7576;DHT22;3829;50.798;4.358;2022-08-01T04:33:14;19.50;99.90
7576;DHT22;3829;50.798;4.358;2022-08-01T04:35:44;19.50;99.90
7576;DHT22;3829;50.798;4.358;2022-08-01T04:38:12;19.50;99.90
7576;DHT22;3829;50.798;4.358;2022-08-01T04:40:40;19.40;99.90
7576;DHT22;3829;50.798;4.358;2022-08-01T04:43:06;19.40;99.90
7576;DHT22;3829;50.798;4.358;2022-08-01T04:45:33;19.30;99.90
7576;DHT22;3829;50.798;4.358;2022-08-01T04:47:59;19.40;99.90
7576;DHT22;3829;50.798;4.358;2022-08-01T04:50:26;19.30;99.90
7576;DHT22;3829;50.798;4.358;2022-08-01T04:52:52;19.20;99.90
7576;DHT22;3829;50.798;4.358;2022-08-01T04:55:21;19.10;99.90
7576;DHT22;3829;50.798;4.358;2022-08-01T04:57:47;19.20;99.90
7576;DHT22;3829;50.798;4.358;2022-08-01T05:00:13;19.20;99.90
7576;DHT22;3829;50.798;4.358;2022-08-01T05:02:39;19.20;99.90
7576;DHT22;3829;50.798;4.358;2022-08-01T05:05:05;19.30;99.90
7576;DHT22;3829;50.798;4.358;2022-08-01T05:07:32;19.30;99.90
7576;DHT22;3829;50.798;4.358;2022-08-01T05:09:58;19.40;99.90
7576;DHT22;3829;50.798;4.358;2022-08-01T05:12:24;19.40;99.90
7576;DHT22;3829;50.798;4.358;2022-08-01T05:14:49;19.40;99.90
7576;DHT22;3829;50.798;4.358;2022-08-01T05:17:16;19.30;99.90
7576;DHT22;3829;50.798;4.358;2022-08-01T05:19:42;19.30;99.90
7576;DHT22;3829;50.798;4.358;2022-08-01T05:22:09;19.30;99.90
7576;DHT22;3829;50.798;4.358;2022-08-01T05:24:37;19.40;99.90
7576;DHT22;3829;50.798;4.358;2022-08-01T05:27:04;19.40;99.90
7576;DHT22;3829;50.798;4.358;2022-08-01T05:29:30;19.40;99.90
7576;DHT22;3829;50.798;4.358;2022-08-01T05:31:56;19.60;99.90
7576;DHT22;3829;50.798;4.358;2022-08-01T05:34:22;19.50;99.90
7576;DHT22;3829;50.798;4.358;2022-08-01T05:36:48;19.60;99.90
7576;DHT22;3829;50.798;4.358;2022-08-01T05:39:14;19.50;99.90
7576;DHT22;3829;50.798;4.358;2022-08-01T05:41:40;19.50;99.90
7576;DHT22;3829;50.798;4.358;2022-08-01T05:44:06;19.60;99.90
7576;DHT22;3829;50.798;4.358;2022-08-01T05:46:33;19.70;99.90
7576;DHT22;3829;50.798;4.358;2022-08-01T05:49:00;19.70;99.90
7576;DHT22;3829;50.798;4.358;2022-08-01T05:51:25;19.90;99.90
7576;DHT22;3829;50.798;4.358;2022-08-01T05:53:52;20.00;99.90
7576;DHT22;3829;50.798;4.358;2022-08-01T05:56:18;20.00;99.90
7576;DHT22;3829;50.798;4.358;2022-08-01T05:58:43;20.00;99.90
7576;DHT22;3829;50.798;4.358;2022-08-01T06:01:09;19.90;99.90
7576;DHT22;3829;50.798;4.358;2022-08-01T06:03:34;19.70;99.90
7576;DHT22;3829;50.798;4.358;2022-08-01T06:06:00;19.70;99.90
7576;DHT22;3829;50.798;4.358;2022-08-01T06:08:27;19.80;99.90
7576;DHT22;3829;50.798;4.358;2022-08-01T06:10:53;19.80;99.90
7576;DHT22;3829;50.798;4.358;2022-08-01T06:13:18;19.70;99.90
7576;DHT22;3829;50.798;4.358;2022-08-01T06:15:45;20.00;99.90
7576;DHT22;3829;50.798;4.358;2022-08-01T06:18:11;19.90;99.90
7576;DHT22;3829;50.798;4.358;2022-08-01T06:20:37;20.00;99.90
7576;DHT22;3829;50.798;4.358;2022-08-01T06:23:02;20.30;99.90
7576;DHT22;3829;50.798;4.358;2022-08-01T06:25:28;20.50;99.90
7576;DHT22;3829;50.798;4.358;2022-08-01T06:27:54;20.50;99.90
7576;DHT22;3829;50.798;4.358;2022-08-01T06:30:19;20.60;99.90
7576;DHT22;3829;50.798;4.358;2022-08-01T06:32:45;20.80;99.90
7576;DHT22;3829;50.798;4.358;2022-08-01T06:35:11;20.90;99.90
7576;DHT22;3829;50.798;4.358;2022-08-01T06:37:37;20.80;99.90
7576;DHT22;3829;50.798;4.358;2022-08-01T06:40:08;21.00;99.90
7576;DHT22;3829;50.798;4.358;2022-08-01T06:42:34;21.10;99.90
7576;DHT22;3829;50.798;4.358;2022-08-01T06:45:04;20.80;99.90
7576;DHT22;3829;50.798;4.358;2022-08-01T06:47:30;20.90;99.90
7576;DHT22;3829;50.798;4.358;2022-08-01T06:49:56;21.20;99.90
7576;DHT22;3829;50.798;4.358;2022-08-01T06:52:22;21.30;99.90
7576;DHT22;3829;50.798;4.358;2022-08-01T06:54:48;21.40;99.90
7576;DHT22;3829;50.798;4.358;2022-08-01T06:57:14;21.40;99.90
7576;DHT22;3829;50.798;4.358;2022-08-01T06:59:40;21.40;99.90
7576;DHT22;3829;50.798;4.358;2022-08-01T07:02:06;21.50;99.90
7576;DHT22;3829;50.798;4.358;2022-08-01T07:04:33;21.70;99.90
7576;DHT22;3829;50.798;4.358;2022-08-01T07:06:59;21.70;99.90
7576;DHT22;3829;50.798;4.358;2022-08-01T07:09:26;21.80;99.90
7576;DHT22;3829;50.798;4.358;2022-08-01T07:11:52;21.90;99.90
7576;DHT22;3829;50.798;4.358;2022-08-01T07:14:20;21.80;99.90
7576;DHT22;3829;50.798;4.358;2022-08-01T07:16:46;21.80;99.90
7576;DHT22;3829;50.798;4.358;2022-08-01T07:19:12;21.70;99.90
7576;DHT22;3829;50.798;4.358;2022-08-01T07:21:38;21.90;99.90
7576;DHT22;3829;50.798;4.358;2022-08-01T07:24:05;22.00;99.90
7576;DHT22;3829;50.798;4.358;2022-08-01T07:26:31;21.90;99.90
7576;DHT22;3829;50.798;4.358;2022-08-01T07:28:57;21.60;99.90
7576;DHT22;3829;50.798;4.358;2022-08-01T07:31:23;21.80;99.90
7576;DHT22;3829;50.798;4.358;2022-08-01T07:33:49;21.80;99.90
7576;DHT22;3829;50.798;4.358;2022-08-01T07:36:16;22.00;99.90
7576;DHT22;3829;50.798;4.358;2022-08-01T07:38:42;22.20;99.90
7576;DHT22;3829;50.798;4.358;2022-08-01T07:41:07;22.30;99.90
7576;DHT22;3829;50.798;4.358;2022-08-01T07:43:33;22.30;99.90
7576;DHT22;3829;50.798;4.358;2022-08-01T07:46:04;22.60;99.90
7576;DHT22;3829;50.798;4.358;2022-08-01T07:48:30;22.60;99.90
7576;DHT22;3829;50.798;4.358;2022-08-01T07:50:56;22.20;99.90
7576;DHT22;3829;50.798;4.358;2022-08-01T07:53:22;22.40;99.90
7576;DHT22;3829;50.798;4.358;2022-08-01T07:55:48;22.50;99.90
7576;DHT22;3829;50.798;4.358;2022-08-01T07:58:14;22.70;99.90
7576;DHT22;3829;50.798;4.358;2022-08-01T08:00:40;22.80;99.90
7576;DHT22;3829;50.798;4.358;2022-08-01T08:03:05;22.70;99.90
7576;DHT22;3829;50.798;4.358;2022-08-01T08:05:31;22.80;99.90
7576;DHT22;3829;50.798;4.358;2022-08-01T08:08:08;22.70;99.90
7576;DHT22;3829;50.798;4.358;2022-08-01T08:10:33;22.70;99.90
7576;DHT22;3829;50.798;4.358;2022-08-01T08:12:59;22.70;99.90
7576;DHT22;3829;50.798;4.358;2022-08-01T08:15:26;22.90;99.90
7576;DHT22;3829;50.798;4.358;2022-08-01T08:17:52;23.20;99.90
7576;DHT22;3829;50.798;4.358;2022-08-01T08:20:18;23.30;99.90
7576;DHT22;3829;50.798;4.358;2022-08-01T08:22:43;23.10;99.90
7576;DHT22;3829;50.798;4.358;2022-08-01T08:25:09;23.10;99.90
7576;DHT22;3829;50.798;4.358;2022-08-01T08:27:38;23.00;99.90
7576;DHT22;3829;50.798;4.358;2022-08-01T08:30:05;22.80;99.90
7576;DHT22;3829;50.798;4.358;2022-08-01T08:32:33;22.70;99.90
7576;DHT22;3829;50.798;4.358;2022-08-01T08:34:59;22.70;99.90
7576;DHT22;3829;50.798;4.358;2022-08-01T08:37:25;22.90;99.90
7576;DHT22;3829;50.798;4.358;2022-08-01T08:39:51;23.10;99.90
7576;DHT22;3829;50.798;4.358;2022-08-01T08:42:16;22.80;99.90
7576;DHT22;3829;50.798;4.358;2022-08-01T08:44:43;23.00;99.90
7576;DHT22;3829;50.798;4.358;2022-08-01T08:47:11;23.40;99.90
7576;DHT22;3829;50.798;4.358;2022-08-01T08:49:37;23.50;99.90
7576;DHT22;3829;50.798;4.358;2022-08-01T08:52:04;23.20;99.90
7576;DHT22;3829;50.798;4.358;2022-08-01T08:54:31;23.20;99.90
7576;DHT22;3829;50.798;4.358;2022-08-01T08:56:59;23.10;99.90
7576;DHT22;3829;50.798;4.358;2022-08-01T08:59:25;23.30;99.90
7576;DHT22;3829;50.798;4.358;2022-08-01T09:01:51;23.80;99.90
7576;DHT22;3829;50.798;4.358;2022-08-01T09:04:18;24.00;99.90
7576;DHT22;3829;50.798;4.358;2022-08-01T09:06:48;23.90;99.90
7576;DHT22;3829;50.798;4.358;2022-08-01T09:09:14;24.10;99.90
7576;DHT22;3829;50.798;4.358;2022-08-01T09:11:40;24.10;99.90
7576;DHT22;3829;50.798;4.358;2022-08-01T09:16:42;24.70;99.90
7576;DHT22;3829;50.798;4.358;2022-08-01T09:19:13;24.80;99.90
7576;DHT22;3829;50.798;4.358;2022-08-01T09:21:40;24.80;99.90
7576;DHT22;3829;50.798;4.358;2022-08-01T09:24:14;24.40;99.90
7576;DHT22;3829;50.798;4.358;2022-08-01T09:26:40;24.40;99.90
7576;DHT22;3829;50.798;4.358;2022-08-01T09:29:09;23.90;99.90
7576;DHT22;3829;50.798;4.358;2022-08-01T09:31:43;24.10;99.90
7576;DHT22;3829;50.798;4.358;2022-08-01T09:34:10;24.30;99.90
7576;DHT22;3829;50.798;4.358;2022-08-01T09:36:48;24.20;99.90
7576;DHT22;3829;50.798;4.358;2022-08-01T09:39:18;24.00;99.90
7576;DHT22;3829;50.798;4.358;2022-08-01T09:41:45;24.00;99.90
7576;DHT22;3829;50.798;4.358;2022-08-01T09:44:11;24.20;99.90
7576;DHT22;3829;50.798;4.358;2022-08-01T09:46:54;24.10;99.90
7576;DHT22;3829;50.798;4.358;2022-08-01T09:49:28;23.80;99.90
7576;DHT22;3829;50.798;4.358;2022-08-01T09:51:54;24.00;99.90
7576;DHT22;3829;50.798;4.358;2022-08-01T09:54:31;23.90;99.90
7576;DHT22;3829;50.798;4.358;2022-08-01T09:57:27;24.10;99.90
7576;DHT22;3829;50.798;4.358;2022-08-01T09:59:56;24.60;99.90
7576;DHT22;3829;50.798;4.358;2022-08-01T10:02:35;24.90;99.90
7576;DHT22;3829;50.798;4.358;2022-08-01T10:05:05;24.60;99.90
7576;DHT22;3829;50.798;4.358;2022-08-01T10:07:32;24.40;99.90
7576;DHT22;3829;50.798;4.358;2022-08-01T10:10:15;24.20;99.90
7576;DHT22;3829;50.798;4.358;2022-08-01T10:12:42;24.20;99.90
7576;DHT22;3829;50.798;4.358;2022-08-01T10:15:09;24.40;99.90
7576;DHT22;3829;50.798;4.358;2022-08-01T10:17:38;24.70;99.90
7576;DHT22;3829;50.798;4.358;2022-08-01T10:20:05;24.80;99.90
7576;DHT22;3829;50.798;4.358;2022-08-01T10:22:34;25.60;99.90
7576;DHT22;3829;50.798;4.358;2022-08-01T10:25:03;26.40;99.90
7576;DHT22;3829;50.798;4.358;2022-08-01T10:27:32;26.80;99.90
7576;DHT22;3829;50.798;4.358;2022-08-01T10:30:02;26.90;99.90
7576;DHT22;3829;50.798;4.358;2022-08-01T10:32:30;26.60;99.90
7576;DHT22;3829;50.798;4.358;2022-08-01T10:34:56;26.90;99.90
7576;DHT22;3829;50.798;4.358;2022-08-01T10:37:27;27.00;99.90
7576;DHT22;3829;50.798;4.358;2022-08-01T10:39:54;27.10;99.90
7576;DHT22;3829;50.798;4.358;2022-08-01T10:42:23;26.90;99.90
7576;DHT22;3829;50.798;4.358;2022-08-01T10:44:50;26.60;99.90
7576;DHT22;3829;50.798;4.358;2022-08-01T10:47:48;26.80;99.90
7576;DHT22;3829;50.798;4.358;2022-08-01T10:50:39;27.00;99.90
7576;DHT22;3829;50.798;4.358;2022-08-01T10:53:15;26.70;99.90
7576;DHT22;3829;50.798;4.358;2022-08-01T10:55:50;26.10;99.90
7576;DHT22;3829;50.798;4.358;2022-08-01T10:58:30;26.00;99.90
7576;DHT22;3829;50.798;4.358;2022-08-01T11:01:24;26.60;99.90
7576;DHT22;3829;50.798;4.358;2022-08-01T11:12:05;27.10;99.90
7576;DHT22;3829;50.798;4.358;2022-08-01T11:14:34;27.30;99.90
7576;DHT22;3829;50.798;4.358;2022-08-01T11:20:15;27.60;99.90
7576;DHT22;3829;50.798;4.358;2022-08-01T11:30:44;26.80;99.90
7576;DHT22;3829;50.798;4.358;2022-08-01T11:33:11;27.20;99.90
7576;DHT22;3829;50.798;4.358;2022-08-01T11:35:38;27.20;99.90
7576;DHT22;3829;50.798;4.358;2022-08-01T11:38:25;27.70;99.90
7576;DHT22;3829;50.798;4.358;2022-08-01T11:44:00;27.90;99.90
7576;DHT22;3829;50.798;4.358;2022-08-01T11:49:33;28.10;99.90
7576;DHT22;3829;50.798;4.358;2022-08-01T11:54:40;27.60;99.90
7576;DHT22;3829;50.798;4.358;2022-08-01T11:59:52;27.70;99.90
7576;DHT22;3829;50.798;4.358;2022-08-01T12:02:30;27.40;99.90
7576;DHT22;3829;50.798;4.358;2022-08-01T12:07:28;27.10;99.90
7576;DHT22;3829;50.798;4.358;2022-08-01T12:10:04;27.30;99.90
7576;DHT22;3829;50.798;4.358;2022-08-01T12:12:32;27.30;99.90
7576;DHT22;3829;50.798;4.358;2022-08-01T12:15:05;27.10;99.90
7576;DHT22;3829;50.798;4.358;2022-08-01T12:17:43;26.70;99.90
7576;DHT22;3829;50.798;4.358;2022-08-01T12:20:12;27.20;99.90
7576;DHT22;3829;50.798;4.358;2022-08-01T12:22:40;27.40;99.90
7576;DHT22;3829;50.798;4.358;2022-08-01T12:25:12;27.30;99.90
7576;DHT22;3829;50.798;4.358;2022-08-01T12:27:41;27.40;99.90
7576;DHT22;3829;50.798;4.358;2022-08-01T12:30:16;27.50;99.90
7576;DHT22;3829;50.798;4.358;2022-08-01T12:32:45;27.50;99.90
7576;DHT22;3829;50.798;4.358;2022-08-01T12:35:16;27.80;99.90
7576;DHT22;3829;50.798;4.358;2022-08-01T12:37:46;28.00;99.90
7576;DHT22;3829;50.798;4.358;2022-08-01T12:40:14;28.30;99.90
7576;DHT22;3829;50.798;4.358;2022-08-01T12:42:43;28.20;99.90
7576;DHT22;3829;50.798;4.358;2022-08-01T12:45:12;28.60;99.90
7576;DHT22;3829;50.798;4.358;2022-08-01T12:47:39;29.00;99.90
7576;DHT22;3829;50.798;4.358;2022-08-01T12:50:13;29.20;99.90
7576;DHT22;3829;50.798;4.358;2022-08-01T12:52:40;28.90;99.90
7576;DHT22;3829;50.798;4.358;2022-08-01T12:55:15;28.70;99.90
7576;DHT22;3829;50.798;4.358;2022-08-01T12:57:47;29.30;99.90
7576;DHT22;3829;50.798;4.358;2022-08-01T13:00:23;28.70;99.90
7576;DHT22;3829;50.798;4.358;2022-08-01T13:03:07;28.00;99.90
7576;DHT22;3829;50.798;4.358;2022-08-01T13:05:54;28.20;99.90
7576;DHT22;3829;50.798;4.358;2022-08-01T13:08:30;28.60;99.90
7576;DHT22;3829;50.798;4.358;2022-08-01T13:11:13;28.60;99.90
7576;DHT22;3829;50.798;4.358;2022-08-01T13:13:43;28.20;99.90
7576;DHT22;3829;50.798;4.358;2022-08-01T13:16:13;28.30;99.90
7576;DHT22;3829;50.798;4.358;2022-08-01T13:18:39;28.40;99.90
7576;DHT22;3829;50.798;4.358;2022-08-01T13:21:23;28.40;99.90
7576;DHT22;3829;50.798;4.358;2022-08-01T13:24:03;28.20;99.90
7576;DHT22;3829;50.798;4.358;2022-08-01T13:29:49;28.10;99.90
7576;DHT22;3829;50.798;4.358;2022-08-01T13:32:17;27.80;99.90
7576;DHT22;3829;50.798;4.358;2022-08-01T13:34:43;27.50;99.90
7576;DHT22;3829;50.798;4.358;2022-08-01T13:37:09;26.90;99.90
7576;DHT22;3829;50.798;4.358;2022-08-01T13:39:34;26.70;99.90
7576;DHT22;3829;50.798;4.358;2022-08-01T13:42:15;26.70;99.90
7576;DHT22;3829;50.798;4.358;2022-08-01T13:44:42;28.00;99.90
7576;DHT22;3829;50.798;4.358;2022-08-01T13:47:10;28.90;99.90
7576;DHT22;3829;50.798;4.358;2022-08-01T13:49:36;29.10;99.90
7576;DHT22;3829;50.798;4.358;2022-08-01T13:52:02;28.50;99.90
7576;DHT22;3829;50.798;4.358;2022-08-01T13:54:28;28.40;99.90
7576;DHT22;3829;50.798;4.358;2022-08-01T13:56:54;27.80;99.90
7576;DHT22;3829;50.798;4.358;2022-08-01T13:59:20;27.20;99.90
7576;DHT22;3829;50.798;4.358;2022-08-01T14:01:45;27.30;99.90
7576;DHT22;3829;50.798;4.358;2022-08-01T14:04:11;28.10;99.90
7576;DHT22;3829;50.798;4.358;2022-08-01T14:06:37;29.50;99.90
7576;DHT22;3829;50.798;4.358;2022-08-01T14:09:03;30.40;99.90
7576;DHT22;3829;50.798;4.358;2022-08-01T14:11:29;29.10;99.90
7576;DHT22;3829;50.798;4.358;2022-08-01T14:13:55;27.70;99.90
7576;DHT22;3829;50.798;4.358;2022-08-01T14:16:20;27.40;99.90
7576;DHT22;3829;50.798;4.358;2022-08-01T14:18:46;28.00;99.90
7576;DHT22;3829;50.798;4.358;2022-08-01T14:21:12;28.90;99.90
7576;DHT22;3829;50.798;4.358;2022-08-01T14:23:37;28.80;99.90
7576;DHT22;3829;50.798;4.358;2022-08-01T14:26:03;28.40;99.90
7576;DHT22;3829;50.798;4.358;2022-08-01T14:28:29;27.80;99.90
7576;DHT22;3829;50.798;4.358;2022-08-01T14:30:56;28.20;99.90
7576;DHT22;3829;50.798;4.358;2022-08-01T14:33:22;30.40;99.90
7576;DHT22;3829;50.798;4.358;2022-08-01T14:35:48;30.40;99.90
7576;DHT22;3829;50.798;4.358;2022-08-01T14:38:14;29.10;99.90
7576;DHT22;3829;50.798;4.358;2022-08-01T14:40:40;28.80;99.90
7576;DHT22;3829;50.798;4.358;2022-08-01T14:43:06;28.40;99.90
7576;DHT22;3829;50.798;4.358;2022-08-01T14:45:32;28.50;99.90
7576;DHT22;3829;50.798;4.358;2022-08-01T14:47:58;29.20;99.90
7576;DHT22;3829;50.798;4.358;2022-08-01T14:50:24;30.00;99.90
7576;DHT22;3829;50.798;4.358;2022-08-01T14:52:52;30.00;99.90
7576;DHT22;3829;50.798;4.358;2022-08-01T14:55:18;29.90;99.90
7576;DHT22;3829;50.798;4.358;2022-08-01T14:57:47;29.20;99.90
7576;DHT22;3829;50.798;4.358;2022-08-01T15:00:12;29.10;99.90
7576;DHT22;3829;50.798;4.358;2022-08-01T15:02:39;28.70;99.90
7576;DHT22;3829;50.798;4.358;2022-08-01T15:05:05;28.10;99.90
7576;DHT22;3829;50.798;4.358;2022-08-01T15:07:31;28.00;99.90
7576;DHT22;3829;50.798;4.358;2022-08-01T15:09:57;27.70;99.90
7576;DHT22;3829;50.798;4.358;2022-08-01T15:12:23;28.00;99.90
7576;DHT22;3829;50.798;4.358;2022-08-01T15:14:48;29.40;99.90
7576;DHT22;3829;50.798;4.358;2022-08-01T15:17:20;30.90;99.90
7576;DHT22;3829;50.798;4.358;2022-08-01T15:19:48;32.30;99.90
7576;DHT22;3829;50.798;4.358;2022-08-01T15:22:15;33.30;98.80
7576;DHT22;3829;50.798;4.358;2022-08-01T15:24:41;33.20;97.20
7576;DHT22;3829;50.798;4.358;2022-08-01T15:27:07;34.20;96.60
7576;DHT22;3829;50.798;4.358;2022-08-01T15:29:33;35.00;95.50
7576;DHT22;3829;50.798;4.358;2022-08-01T15:32:00;34.70;95.20
7576;DHT22;3829;50.798;4.358;2022-08-01T15:34:26;35.10;94.80
7576;DHT22;3829;50.798;4.358;2022-08-01T15:36:51;36.40;93.90
7576;DHT22;3829;50.798;4.358;2022-08-01T15:39:17;37.40;93.40
7576;DHT22;3829;50.798;4.358;2022-08-01T15:41:43;37.70;91.40
7576;DHT22;3829;50.798;4.358;2022-08-01T15:44:08;35.40;91.80
7576;DHT22;3829;50.798;4.358;2022-08-01T15:46:34;34.50;92.50
7576;DHT22;3829;50.798;4.358;2022-08-01T15:49:04;33.90;92.90
7576;DHT22;3829;50.798;4.358;2022-08-01T15:51:32;33.00;93.50
7576;DHT22;3829;50.798;4.358;2022-08-01T15:53:58;33.40;93.30
7576;DHT22;3829;50.798;4.358;2022-08-01T15:56:30;32.90;93.00
7576;DHT22;3829;50.798;4.358;2022-08-01T15:58:56;33.90;92.80
7576;DHT22;3829;50.798;4.358;2022-08-01T16:01:22;33.60;92.60
7576;DHT22;3829;50.798;4.358;2022-08-01T16:03:48;33.20;92.80
7576;DHT22;3829;50.798;4.358;2022-08-01T16:06:14;33.40;92.50
7576;DHT22;3829;50.798;4.358;2022-08-01T16:08:40;33.60;92.30
7576;DHT22;3829;50.798;4.358;2022-08-01T16:11:05;33.90;92.60
7576;DHT22;3829;50.798;4.358;2022-08-01T16:13:31;34.90;91.30
7576;DHT22;3829;50.798;4.358;2022-08-01T16:15:57;35.00;90.80
7576;DHT22;3829;50.798;4.358;2022-08-01T16:18:24;34.30;91.30
7576;DHT22;3829;50.798;4.358;2022-08-01T16:20:49;33.20;91.30
7576;DHT22;3829;50.798;4.358;2022-08-01T16:23:15;32.00;92.00
7576;DHT22;3829;50.798;4.358;2022-08-01T16:25:41;31.00;93.30
7576;DHT22;3829;50.798;4.358;2022-08-01T16:28:08;31.70;92.90
7576;DHT22;3829;50.798;4.358;2022-08-01T16:30:35;32.80;92.00
7576;DHT22;3829;50.798;4.358;2022-08-01T16:33:01;33.50;91.80
7576;DHT22;3829;50.798;4.358;2022-08-01T16:35:27;34.40;91.00
7576;DHT22;3829;50.798;4.358;2022-08-01T16:37:52;35.30;90.30
7576;DHT22;3829;50.798;4.358;2022-08-01T16:40:18;35.90;90.00
7576;DHT22;3829;50.798;4.358;2022-08-01T16:42:44;36.00;88.70
7576;DHT22;3829;50.798;4.358;2022-08-01T16:45:09;34.90;89.30
7576;DHT22;3829;50.798;4.358;2022-08-01T16:47:36;35.60;89.50
7576;DHT22;3829;50.798;4.358;2022-08-01T16:50:02;35.20;89.10
7576;DHT22;3829;50.798;4.358;2022-08-01T16:52:28;36.10;88.50
7576;DHT22;3829;50.798;4.358;2022-08-01T16:54:53;36.80;87.10
7576;DHT22;3829;50.798;4.358;2022-08-01T16:57:21;36.90;86.30